Aérodrome :
LOGIN :

S'inscrire | Disclaimer

   EN    FR    IT 

 










Légende :    VFR   VFR Marginal   IFR   IFR Intensif   IFR Très Intensif
Visi : 
Plafond : 
>= 8 km
>= 3000ft
5 à 8 km
1000 à 3000 ft
1500m à 5 km
500 à 1000 ft
800 à 1500m
200 à 500 ft
< 800m
< 200 ft
Symboles :   Orages  Brouillard  Fortes neiges  Fortes précipitations  Vent > 20 kt
SIGMETs :   Divers  Orages  Givrage  Turbulence  Onde Orograph.  Cendres Volcan.







- Altitude de l'aérodrome : 885 ft
- Code IATA : BAS
- Voir les cartes d'approche


LFSB - Bale-Mulhouse

DERNIER METAR :
  • 251830Z 36006KT 340V050 CAVOK 24/12 Q1016 NOSIG

METARs EXPIRÉS :
  • 251800Z 01007KT CAVOK 24/12 Q1016 NOSIG
  • 251730Z 36007KT CAVOK 26/12 Q1016 NOSIG
  • 251700Z 36006KT 330V060 CAVOK 27/12 Q1016 NOSIG
  • 251630Z 02004KT 310V070 CAVOK 27/10 Q1016 NOSIG
  • 251600Z 36004KT 300V030 CAVOK 27/10 Q1016 NOSIG

TAF TAF LFSB
Valide du 25 à 18h jusqu'au 26 à 18h UTC


251700Z 2518/2618 36006KT CAVOK
BECMG 2519/2521 VRB03KT
BECMG 2608/2610 02005KT
PROB30
TEMPO 2610/2617 FEW065TCU
Météo : +33 3 89 90 31 11
Pas de NOTAMs connus pour ce terrain.



MET'MAP, la Météo Aéronautique d'un coup d'oeil ! - Copyright ORBIFLY Décembre 2007 - Disclaimer

ORBIFLY MET'MAP TEAM :

Programmation & Développement : Alexandra Zaïnal
Conception & Développement : Baudouin d'Aumeries
Co-Programmation & Développement : Marc-Olivier Méhu
Soutien technique & logistique : Manuel Goepfert

Contact : metmap@orbifly.com




SOURCES & CREDITS :

   NOAA